Overview Statistics Trail Chart Weather Telemetry Raw packets
 

This is the latest recevied weather packets stored in our database for station/object N9BLE. If no packets are shown the sender has not sent any weather packets the latest 10 day(s).

<< 85 86 87 88 89 90 91 >>
Time Temp. Humidity Pressure Rain* Wind** Luminosity Snow
1777413934 17.78° C 59% 1016.1 hPa 0 mm - 322 W/m² -
1777413629 17.22° C 55% 1016.5 hPa 0 mm - 335 W/m² -
1777413326 17.78° C 58% 1016.8 hPa 0 mm - 362 W/m² -
1777413022 17.78° C 56% 1016.8 hPa 0 mm - 376 W/m² -
1777412722 18.33° C 56% 1016.9 hPa 0 mm - 153 W/m² -
1777412420 17.22° C 58% 1017 hPa 0 mm - 402 W/m² -
1777412119 17.78° C 57% 1016.8 hPa 0 mm - 363 W/m² -
1777411815 16.67° C 60% 1017 hPa 0 mm - 497 W/m² -
1777411514 17.22° C 60% 1017.1 hPa 0 mm - 254 W/m² -
1777411209 17.78° C 60% 1017 hPa 0 mm - 337 W/m² -
1777410909 17.22° C 59% 1017.1 hPa 0 mm - 475 W/m² -
1777410608 16.67° C 60% 1017.3 hPa 0 mm - 557 W/m² -
1777410303 17.22° C 58% 1017 hPa 0 mm - 84 W/m² -
1777409997 17.22° C 60% 1017.2 hPa 0 mm - 519 W/m² -
1777409693 17.78° C 58% 1017.1 hPa 0 mm - 543 W/m² -
1777409389 17.22° C 58% 1017.3 hPa 0 mm - 547 W/m² -
1777409084 16.67° C 58% 1017.4 hPa 0 mm - 592 W/m² -
1777408781 17.22° C 59% 1017.5 hPa 0 mm - 512 W/m² -
1777408477 17.22° C 59% 1017.5 hPa 0 mm - 575 W/m² -
1777408172 17.22° C 60% 1017.7 hPa 0 mm - 597 W/m² -
1777407867 17.22° C 63% 1017.3 hPa 0 mm - 614 W/m² -
1777407565 17.22° C 63% 1017.6 hPa 0 mm - 668 W/m² -
1777407265 16.67° C 64% 1017.7 hPa 0 mm - 649 W/m² -
1777406965 16.67° C 61% 1018 hPa 0 mm - 692 W/m² -
1777406659 16.67° C 63% 1018 hPa 0 mm - 712 W/m² -

* Rain latest hour (hover to see other rain measurements)
** Current wind speed in m/s (hover to see current wind gust speed)